createdAt,value
2022-11-24T00:01:24.311Z,97923.44
2022-11-24T00:04:03.544Z,97931.66
2022-11-24T00:06:34.205Z,97930.66
2022-11-24T00:09:04.386Z,97925.63
2022-11-24T00:11:35.593Z,97929.94
2022-11-24T00:14:05.111Z,97931.47
2022-11-24T00:16:35.955Z,97931.09
2022-11-24T00:19:09.034Z,97936.59
2022-11-24T00:21:38.181Z,97929.03
2022-11-24T00:24:06.702Z,97930.66
2022-11-24T00:26:37.342Z,97930.22
2022-11-24T00:29:07.960Z,97941.75
2022-11-24T00:31:40.489Z,97935.53
2022-11-24T00:34:14.012Z,97944.78
2022-11-24T00:36:42.457Z,97934.69
2022-11-24T00:39:15.526Z,97940.50
2022-11-24T00:41:44.000Z,97938.09
2022-11-24T00:44:11.912Z,97947.34
2022-11-24T00:46:40.175Z,97951.78
2022-11-24T00:49:08.277Z,97944.69
2022-11-24T00:51:38.841Z,97944.84
2022-11-24T00:54:06.758Z,97949.81
2022-11-24T00:56:34.919Z,97947.41
2022-11-24T00:59:02.908Z,97947.53
2022-11-24T01:01:31.354Z,97950.38
2022-11-24T01:04:03.785Z,97953.94
2022-11-24T01:06:32.855Z,97950.22
2022-11-24T01:09:00.860Z,97959.50
2022-11-24T01:11:54.994Z,97946.59
2022-11-24T01:14:24.695Z,97953.91
2022-11-24T01:16:53.749Z,97963.34
2022-11-24T01:19:22.791Z,97953.81
2022-11-24T01:21:50.709Z,97959.41
2022-11-24T01:24:19.225Z,97961.97
2022-11-24T01:26:47.167Z,97966.25
2022-11-24T01:29:15.184Z,97957.22
2022-11-24T01:31:44.158Z,97960.44
2022-11-24T01:34:14.386Z,97969.72
2022-11-24T01:36:42.287Z,97965.88
2022-11-24T01:39:11.034Z,97971.63
2022-11-24T01:41:39.093Z,97968.88
2022-11-24T01:44:34.851Z,97970.69
2022-11-24T01:47:14.525Z,97975.78
2022-11-24T01:49:51.880Z,97979.38
2022-11-24T01:52:33.365Z,97982.06
2022-11-24T01:55:07.343Z,97985.72
2022-11-24T01:57:41.350Z,97985.69
2022-11-24T02:00:12.445Z,97978.50
2022-11-24T02:02:45.654Z,97989.94
2022-11-24T02:05:23.850Z,97994.03
2022-11-24T02:07:54.580Z,97984.19
2022-11-24T02:10:23.513Z,97990.31
2022-11-24T02:12:54.517Z,97992.22
2022-11-24T02:15:23.028Z,97987.53
2022-11-24T02:17:50.920Z,97990.84
2022-11-24T02:20:19.024Z,97991.47
2022-11-24T02:22:52.398Z,97998.00
2022-11-24T02:25:23.338Z,97994.53
2022-11-24T02:27:54.228Z,97999.34
2022-11-24T02:30:23.506Z,97989.72
2022-11-24T02:32:52.710Z,97994.22
2022-11-24T02:35:20.751Z,97997.75
2022-11-24T02:37:49.033Z,97998.72
2022-11-24T02:40:25.041Z,97998.25
2022-11-24T02:42:57.794Z,97991.72
2022-11-24T02:45:28.230Z,98002.09
2022-11-24T02:47:56.220Z,97998.94
2022-11-24T02:50:25.403Z,98005.53
2022-11-24T02:52:53.971Z,98000.06
2022-11-24T02:55:21.992Z,98001.19
2022-11-24T02:57:50.180Z,98009.97
2022-11-24T03:00:18.733Z,98011.47
2022-11-24T03:02:46.809Z,98013.25
2022-11-24T03:05:15.190Z,98014.91
2022-11-24T03:07:43.170Z,98020.41
2022-11-24T03:10:11.282Z,98022.97
2022-11-24T03:12:39.158Z,98021.50
2022-11-24T03:15:07.539Z,98027.13
2022-11-24T03:17:35.957Z,98025.69
2022-11-24T03:20:05.202Z,98026.97
2022-11-24T03:22:33.435Z,98039.13
2022-11-24T03:25:01.378Z,98036.25
2022-11-24T03:27:30.644Z,98038.53
2022-11-24T03:29:58.609Z,98040.00
2022-11-24T03:32:26.517Z,98039.47
2022-11-24T03:34:54.852Z,98044.44
2022-11-24T03:37:22.866Z,98045.63
2022-11-24T03:39:50.761Z,98047.88
2022-11-24T03:42:19.219Z,98050.63
2022-11-24T03:44:47.165Z,98064.22
2022-11-24T03:47:15.688Z,98062.44
2022-11-24T03:49:43.812Z,98071.09
2022-11-24T03:52:11.798Z,98072.00
2022-11-24T03:54:39.725Z,98068.16
2022-11-24T03:57:07.859Z,98080.28
2022-11-24T03:59:35.726Z,98083.03
2022-11-24T04:02:03.701Z,98079.38
2022-11-24T04:04:32.073Z,98090.09
2022-11-24T04:07:00.154Z,98089.81
2022-11-24T04:09:28.131Z,98093.03
2022-11-24T04:12:14.607Z,98090.75
2022-11-24T04:14:42.554Z,98098.91
2022-11-24T04:17:10.422Z,98101.06
2022-11-24T04:19:38.343Z,98102.94
2022-11-24T04:22:06.192Z,98101.31
2022-11-24T04:24:34.351Z,98108.44
2022-11-24T04:27:02.405Z,98107.66
2022-11-24T04:29:30.304Z,98110.22
2022-11-24T04:31:58.293Z,98113.28
2022-11-24T04:34:26.201Z,98116.53
2022-11-24T04:36:54.086Z,98118.94
2022-11-24T04:39:26.367Z,98121.16
2022-11-24T04:41:56.072Z,98127.75
2022-11-24T04:44:24.164Z,98125.38
2022-11-24T04:46:52.312Z,98124.38
2022-11-24T04:49:21.608Z,98132.19
2022-11-24T04:51:49.829Z,98136.63
2022-11-24T04:54:17.737Z,98127.66
2022-11-24T04:56:45.912Z,98129.66
2022-11-24T04:59:16.718Z,98137.78
2022-11-24T05:01:46.501Z,98135.94
2022-11-24T05:04:16.042Z,98140.94
2022-11-24T05:06:43.992Z,98140.19
2022-11-24T05:09:16.043Z,98133.13
2022-11-24T05:11:44.243Z,98141.34
2022-11-24T05:14:12.214Z,98141.44
2022-11-24T05:16:40.696Z,98132.69
2022-11-24T05:19:08.605Z,98151.41
2022-11-24T05:21:36.607Z,98151.25
2022-11-24T05:24:04.763Z,98155.44
2022-11-24T05:26:32.836Z,98140.81
2022-11-24T05:29:00.815Z,98150.81
2022-11-24T05:31:28.780Z,98158.69
2022-11-24T05:33:56.664Z,98160.25
2022-11-24T05:36:43.482Z,98162.34
2022-11-24T05:39:12.257Z,98170.38
2022-11-24T05:41:41.905Z,98171.34
2022-11-24T05:44:09.830Z,98181.75
2022-11-24T05:46:37.906Z,98178.69
2022-11-24T05:49:05.889Z,98179.84
2022-11-24T05:51:34.247Z,98181.72
2022-11-24T05:54:02.148Z,98185.25
2022-11-24T05:56:30.129Z,98176.31
2022-11-24T05:58:58.025Z,98182.66
2022-11-24T06:01:25.914Z,98190.88
2022-11-24T06:03:53.806Z,98183.63
2022-11-24T06:06:21.672Z,98189.25
2022-11-24T06:08:49.854Z,98197.09
2022-11-24T06:11:17.750Z,98192.63
2022-11-24T06:13:47.146Z,98200.66
2022-11-24T06:16:15.270Z,98202.09
2022-11-24T06:18:43.180Z,98210.38
2022-11-24T06:21:12.062Z,98216.38
2022-11-24T06:23:40.496Z,98220.38
2022-11-24T06:26:09.323Z,98220.22
2022-11-24T06:28:37.244Z,98225.66
2022-11-24T06:31:06.376Z,98224.84
2022-11-24T06:33:35.938Z,98236.53
2022-11-24T06:36:09.873Z,98240.88
2022-11-24T06:38:38.051Z,98243.09
2022-11-24T06:41:09.247Z,98240.03
2022-11-24T06:43:37.264Z,98238.03
2022-11-24T06:46:05.610Z,98239.44
2022-11-24T06:48:34.120Z,98237.03
2022-11-24T06:51:10.145Z,98237.72
2022-11-24T06:53:40.810Z,98244.03
2022-11-24T06:56:16.341Z,98233.47
2022-11-24T06:58:47.509Z,98246.47
2022-11-24T07:01:16.896Z,98242.25
2022-11-24T07:03:45.287Z,98249.84
2022-11-24T07:06:13.227Z,98251.91
2022-11-24T07:08:41.068Z,98250.66
2022-11-24T07:11:11.387Z,98254.78
2022-11-24T07:13:39.341Z,98258.06
2022-11-24T07:16:15.728Z,98255.47
2022-11-24T07:18:45.434Z,98260.72
2022-11-24T07:21:13.626Z,98262.97
2022-11-24T07:23:41.545Z,98272.06
2022-11-24T07:26:10.647Z,98268.69
2022-11-24T07:28:38.629Z,98276.28
2022-11-24T07:31:12.396Z,98281.06
2022-11-24T07:33:41.259Z,98283.06
2022-11-24T07:36:09.514Z,98295.56
2022-11-24T07:38:37.419Z,98300.69
2022-11-24T07:41:07.849Z,98299.47
2022-11-24T07:43:37.618Z,98299.28
2022-11-24T07:46:08.128Z,98299.50
2022-11-24T07:48:36.140Z,98297.13
2022-11-24T07:51:05.327Z,98304.06
2022-11-24T07:53:34.138Z,98308.50
2022-11-24T07:56:03.783Z,98304.94
2022-11-24T07:58:34.377Z,98313.44
2022-11-24T08:01:16.749Z,98316.16
2022-11-24T08:03:46.075Z,98313.78
2022-11-24T08:06:36.260Z,98315.06
2022-11-24T08:09:02.585Z,98307.94
2022-11-24T08:11:34.577Z,98306.31
2022-11-24T08:14:02.519Z,98321.16
2022-11-24T08:16:30.428Z,98321.41
2022-11-24T08:18:58.517Z,98320.13
2022-11-24T08:21:26.753Z,98322.88
2022-11-24T08:23:56.762Z,98303.59
2022-11-24T08:26:25.706Z,98319.81
2022-11-24T08:28:57.265Z,98326.41
2022-11-24T08:31:32.801Z,98324.31
2022-11-24T08:34:03.277Z,98321.78
2022-11-24T08:36:31.452Z,98318.53
2022-11-24T08:39:00.491Z,98317.91
2022-11-24T08:41:29.440Z,98328.63
2022-11-24T08:43:57.980Z,98322.25
2022-11-24T08:46:26.077Z,98326.41
2022-11-24T08:48:55.260Z,98326.91
2022-11-24T08:51:26.251Z,98325.13
2022-11-24T08:53:58.839Z,98333.00
2022-11-24T08:56:28.960Z,98332.84
2022-11-24T08:58:57.494Z,98335.09
2022-11-24T09:01:26.881Z,98331.53
2022-11-24T09:03:55.303Z,98327.56
2022-11-24T09:06:26.123Z,98340.84
2022-11-24T09:08:55.600Z,98340.22
2022-11-24T09:11:24.780Z,98330.75
2022-11-24T09:13:53.651Z,98332.03
2022-11-24T09:16:25.964Z,98332.19
2022-11-24T09:19:00.039Z,98329.63
2022-11-24T09:21:29.638Z,98337.00
2022-11-24T09:23:58.038Z,98328.34
2022-11-24T09:26:34.589Z,98345.03
2022-11-24T09:29:04.851Z,98331.72
2022-11-24T09:31:35.398Z,98331.09
2022-11-24T09:34:07.670Z,98330.28
2022-11-24T09:36:35.612Z,98327.25
2022-11-24T09:39:03.841Z,98321.50
2022-11-24T09:42:02.673Z,98319.09
2022-11-24T09:44:50.083Z,98320.41
2022-11-24T09:47:29.684Z,98326.84
2022-11-24T09:50:09.060Z,98325.88
2022-11-24T09:53:22.933Z,98329.59
2022-11-24T09:55:53.918Z,98330.69
2022-11-24T09:58:36.048Z,98331.00
2022-11-24T10:01:19.102Z,98322.75
2022-11-24T10:03:52.033Z,98323.75
2022-11-24T10:06:24.214Z,98331.78
2022-11-24T10:09:23.946Z,98332.50
2022-11-24T10:12:13.068Z,98335.19
2022-11-24T10:15:02.783Z,98344.13
2022-11-24T10:17:39.616Z,98339.56
2022-11-24T10:20:49.213Z,98342.66
2022-11-24T10:23:29.869Z,98338.91
2022-11-24T10:26:00.141Z,98343.06
2022-11-24T10:28:52.434Z,98358.25
2022-11-24T10:31:40.216Z,98350.84
2022-11-24T10:34:15.185Z,98349.66
2022-11-24T10:36:52.693Z,98352.66
2022-11-24T10:39:39.802Z,98350.09
2022-11-24T10:42:33.434Z,98348.44
2022-11-24T10:45:02.986Z,98362.00
2022-11-24T10:47:31.708Z,98352.88
2022-11-24T10:50:35.529Z,98356.28
2022-11-24T10:53:24.778Z,98357.84
2022-11-24T10:55:55.607Z,98353.41
2022-11-24T10:58:26.694Z,98366.84
2022-11-24T11:00:56.041Z,98357.28
2022-11-24T11:03:27.332Z,98364.44
2022-11-24T11:06:14.331Z,98365.38
2022-11-24T11:08:42.230Z,98363.22
2022-11-24T11:11:23.721Z,98362.91
2022-11-24T11:14:01.547Z,98361.09
2022-11-24T11:16:53.637Z,98356.50
2022-11-24T11:19:51.835Z,98355.72
2022-11-24T11:22:32.654Z,98361.69
2022-11-24T11:25:08.144Z,98359.06
2022-11-24T11:27:36.960Z,98365.47
2022-11-24T11:36:13.446Z,98357.19
2022-11-24T11:38:42.540Z,98350.56
2022-11-24T11:44:54.367Z,98352.84
2022-11-24T11:47:46.380Z,98351.50
2022-11-24T11:50:17.672Z,98351.06
2022-11-24T11:53:00.834Z,98347.59
2022-11-24T11:55:50.060Z,98345.91
2022-11-24T11:58:24.326Z,98350.28
2022-11-24T12:01:04.954Z,98345.72
2022-11-24T12:03:55.096Z,98342.63
2022-11-24T12:06:29.308Z,98337.09
2022-11-24T12:09:24.223Z,98338.41
2022-11-24T12:12:29.721Z,98335.59
2022-11-24T12:15:16.019Z,98333.00
2022-11-24T12:17:53.180Z,98325.78
2022-11-24T12:20:32.426Z,98328.91
2022-11-24T12:23:15.433Z,98328.72
2022-11-24T12:25:58.192Z,98331.53
2022-11-24T12:28:47.577Z,98324.00
2022-11-24T12:31:24.418Z,98333.28
2022-11-24T12:34:10.460Z,98335.94
2022-11-24T12:36:53.185Z,98336.56
2022-11-24T12:39:35.865Z,98323.13
2022-11-24T12:42:11.565Z,98317.78
2022-11-24T12:45:15.751Z,98314.97
2022-11-24T12:48:03.707Z,98318.19
2022-11-24T12:50:38.153Z,98315.72
2022-11-24T12:53:17.423Z,98313.72
2022-11-24T12:55:46.554Z,98307.09
2022-11-24T12:58:32.706Z,98305.53
2022-11-24T13:01:19.240Z,98306.59
2022-11-24T13:03:59.847Z,98312.97
2022-11-24T13:06:35.561Z,98307.88
2022-11-24T13:09:12.060Z,98314.75
2022-11-24T13:11:43.938Z,98310.09
2022-11-24T13:14:28.916Z,98302.50
2022-11-24T13:19:49.175Z,98310.19
2022-11-24T13:22:27.091Z,98316.72
2022-11-24T13:25:19.420Z,98312.94
2022-11-24T13:27:52.317Z,98313.34
2022-11-24T13:30:35.400Z,98322.16
2022-11-24T13:33:16.406Z,98322.78
2022-11-24T13:36:03.164Z,98340.22
2022-11-24T13:38:46.326Z,98348.22
2022-11-24T13:41:33.081Z,98354.38
2022-11-24T13:44:16.251Z,98344.03
2022-11-24T13:47:06.761Z,98350.94
2022-11-24T13:49:42.638Z,98330.66
2022-11-24T13:52:42.821Z,98359.63
2022-11-24T13:55:13.756Z,98371.78
2022-11-24T13:57:45.533Z,98372.69
2022-11-24T14:00:19.661Z,98368.41
2022-11-24T14:02:48.882Z,98371.28
2022-11-24T14:05:19.659Z,98369.13
2022-11-24T14:07:51.087Z,98359.41
2022-11-24T14:10:35.300Z,98347.63
2022-11-24T14:13:21.257Z,98342.66
2022-11-24T14:16:21.305Z,98349.75
2022-11-24T14:18:51.491Z,98361.16
2022-11-24T14:21:32.168Z,98347.84
2022-11-24T14:24:11.394Z,98355.81
2022-11-24T14:26:41.173Z,98357.94
2022-11-24T14:29:20.288Z,98360.72
2022-11-24T14:32:00.789Z,98377.69
2022-11-24T14:34:30.333Z,98375.72
2022-11-24T14:37:00.781Z,98399.66
2022-11-24T14:39:30.116Z,98407.19
2022-11-24T14:42:05.845Z,98422.81
2022-11-24T14:44:51.213Z,98421.09
2022-11-24T14:47:32.774Z,98417.53
2022-11-24T14:50:16.703Z,98448.75
2022-11-24T14:52:56.629Z,98451.31
2022-11-24T14:55:27.576Z,98435.06
2022-11-24T14:57:56.641Z,98438.94
2022-11-24T15:00:24.732Z,98431.84
2022-11-24T15:02:55.480Z,98442.16
2022-11-24T15:05:25.396Z,98438.09
2022-11-24T15:08:02.873Z,98445.66
2022-11-24T15:10:38.545Z,98448.59
2022-11-24T15:13:20.807Z,98453.72
2022-11-24T15:15:58.996Z,98453.72
2022-11-24T15:18:30.065Z,98457.56
2022-11-24T15:20:57.992Z,98461.75
2022-11-24T15:23:31.193Z,98460.16
2022-11-24T15:26:02.074Z,98469.50
2022-11-24T15:28:31.304Z,98488.44
2022-11-24T15:31:05.796Z,98485.38
2022-11-24T15:33:34.048Z,98491.97
2022-11-24T15:36:02.322Z,98503.25
2022-11-24T15:38:30.552Z,98503.25
2022-11-24T15:41:00.363Z,98497.16
2022-11-24T15:43:32.340Z,98509.50
2022-11-24T15:46:02.032Z,98503.72
2022-11-24T15:48:30.774Z,98509.84
2022-11-24T15:51:00.464Z,98503.56
2022-11-24T15:53:31.718Z,98507.25
2022-11-24T15:56:02.039Z,98510.81
2022-11-24T15:58:29.922Z,98522.41
2022-11-24T16:00:57.836Z,98518.84
2022-11-24T16:06:23.786Z,98529.63
2022-11-24T16:08:54.487Z,98533.00
2022-11-24T16:11:22.848Z,98526.72
2022-11-24T16:13:53.253Z,98530.59
2022-11-24T16:16:24.685Z,98526.09
2022-11-24T16:18:53.206Z,98526.91
2022-11-24T16:21:21.274Z,98527.38
2022-11-24T16:23:49.253Z,98533.97
2022-11-24T16:26:17.361Z,98536.56
2022-11-24T16:28:46.063Z,98540.25
2022-11-24T16:31:16.128Z,98538.13
2022-11-24T16:33:46.391Z,98538.31
2022-11-24T16:36:14.396Z,98539.09
2022-11-24T16:38:42.358Z,98542.50
2022-11-24T16:41:10.648Z,98542.97
2022-11-24T16:43:38.822Z,98549.25
2022-11-24T16:46:22.293Z,98549.53
2022-11-24T16:48:53.356Z,98552.94
2022-11-24T16:51:22.823Z,98546.66
2022-11-24T16:53:59.540Z,98543.47
2022-11-24T16:56:28.682Z,98557.47
2022-11-24T16:58:56.848Z,98558.22
2022-11-24T17:01:26.124Z,98549.69
2022-11-24T17:03:55.559Z,98562.91
2022-11-24T17:06:23.657Z,98560.94
2022-11-24T17:08:51.563Z,98568.03
2022-11-24T17:11:22.732Z,98555.81
2022-11-24T17:13:51.120Z,98567.22
2022-11-24T17:16:24.032Z,98563.06
2022-11-24T17:18:52.565Z,98573.63
2022-11-24T17:21:23.439Z,98568.56
2022-11-24T17:23:59.601Z,98580.53
2022-11-24T17:26:27.947Z,98589.34
2022-11-24T17:28:56.248Z,98586.81
2022-11-24T17:31:25.671Z,98592.09
2022-11-24T17:33:55.996Z,98590.50
2022-11-24T17:36:24.927Z,98590.00
2022-11-24T17:38:53.248Z,98590.78
2022-11-24T17:41:22.349Z,98595.84
2022-11-24T17:43:52.193Z,98595.19
2022-11-24T17:46:21.193Z,98592.28
2022-11-24T17:48:49.654Z,98606.47
2022-11-24T17:51:20.675Z,98591.47
2022-11-24T17:53:49.802Z,98602.66
2022-11-24T17:56:26.615Z,98599.66
2022-11-24T17:58:56.638Z,98599.00
2022-11-24T18:01:26.291Z,98601.78
2022-11-24T18:03:54.379Z,98599.75
2022-11-24T18:06:25.566Z,98605.59
2022-11-24T18:08:54.184Z,98615.72
2022-11-24T18:11:30.609Z,98627.41
2022-11-24T18:14:02.440Z,98628.03
2022-11-24T18:16:32.960Z,98630.19
2022-11-24T18:19:10.776Z,98633.53
2022-11-24T18:21:40.674Z,98633.03
2022-11-24T18:24:10.149Z,98628.56
2022-11-24T18:26:39.210Z,98643.88
2022-11-24T18:29:07.838Z,98657.31
2022-11-24T18:31:36.138Z,98645.28
2022-11-24T18:34:05.657Z,98639.63
2022-11-24T18:36:35.083Z,98651.41
2022-11-24T18:39:05.404Z,98656.09
2022-11-24T18:41:33.274Z,98658.78
2022-11-24T18:44:08.256Z,98662.72
2022-11-24T18:46:37.623Z,98650.56
2022-11-24T18:49:07.319Z,98651.50
2022-11-24T18:51:35.754Z,98657.28
2022-11-24T18:54:05.421Z,98661.50
2022-11-24T18:56:33.517Z,98675.22
2022-11-24T18:59:01.408Z,98672.91
2022-11-24T19:01:29.792Z,98666.97
2022-11-24T19:04:00.510Z,98669.31
2022-11-24T19:06:35.010Z,98678.75
2022-11-24T19:09:09.230Z,98673.78
2022-11-24T19:11:39.018Z,98672.69
2022-11-24T19:14:08.868Z,98675.91
2022-11-24T19:16:37.175Z,98672.31
2022-11-24T19:19:06.024Z,98669.63
2022-11-24T19:21:38.569Z,98667.66
2022-11-24T19:24:10.436Z,98670.88
2022-11-24T19:26:39.519Z,98677.31
2022-11-24T19:29:08.561Z,98678.00
2022-11-24T19:31:38.477Z,98683.44
2022-11-24T19:34:08.000Z,98682.66
2022-11-24T19:36:36.383Z,98692.47
2022-11-24T19:39:05.249Z,98696.59
2022-11-24T19:41:34.103Z,98700.31
2022-11-24T19:44:02.087Z,98712.34
2022-11-24T19:46:30.190Z,98710.88
2022-11-24T19:49:02.172Z,98709.94
2022-11-24T19:51:35.571Z,98717.75
2022-11-24T19:54:05.964Z,98708.94
2022-11-24T19:56:37.334Z,98717.78
2022-11-24T19:59:06.461Z,98727.97
2022-11-24T20:01:40.073Z,98728.00
2022-11-24T20:04:12.328Z,98729.69
2022-11-24T20:06:42.762Z,98734.44
2022-11-24T20:09:16.344Z,98731.63
2022-11-24T20:11:44.932Z,98734.34
2022-11-24T20:14:15.169Z,98739.28
2022-11-24T20:16:45.458Z,98727.00
2022-11-24T20:19:15.167Z,98738.78
2022-11-24T20:21:47.953Z,98732.44
2022-11-24T20:24:21.840Z,98739.59
2022-11-24T20:26:57.443Z,98732.75
2022-11-24T20:29:25.755Z,98750.59
2022-11-24T20:31:55.408Z,98743.53
2022-11-24T20:34:24.229Z,98744.03
2022-11-24T20:36:53.193Z,98740.00
2022-11-24T20:39:26.623Z,98741.41
2022-11-24T20:41:55.677Z,98748.09
2022-11-24T20:44:26.800Z,98744.84
2022-11-24T20:46:57.233Z,98747.56
2022-11-24T20:49:27.659Z,98752.41
2022-11-24T20:51:57.194Z,98750.28
2022-11-24T20:54:25.448Z,98748.88
2022-11-24T20:56:54.179Z,98764.94
2022-11-24T20:59:24.433Z,98765.03
2022-11-24T21:01:55.397Z,98769.16
2022-11-24T21:04:26.453Z,98762.13
2022-11-24T21:06:55.983Z,98753.22
2022-11-24T21:09:25.409Z,98755.75
2022-11-24T21:11:54.681Z,98759.72
2022-11-24T21:14:22.627Z,98764.84
2022-11-24T21:16:50.578Z,98761.84
2022-11-24T21:19:18.837Z,98764.66
2022-11-24T21:21:48.706Z,98758.69
2022-11-24T21:24:19.402Z,98765.53
2022-11-24T21:26:48.215Z,98761.31
2022-11-24T21:29:22.173Z,98772.72
2022-11-24T21:31:50.231Z,98781.69
2022-11-24T21:34:19.182Z,98780.06
2022-11-24T21:36:47.370Z,98778.28
2022-11-24T21:39:16.103Z,98785.88
2022-11-24T21:41:44.355Z,98784.75
2022-11-24T21:44:13.481Z,98782.91
2022-11-24T21:46:46.095Z,98780.97
2022-11-24T21:49:16.308Z,98786.97
2022-11-24T21:51:44.225Z,98788.19
2022-11-24T21:54:12.133Z,98792.50
2022-11-24T21:56:40.152Z,98782.03
2022-11-24T21:59:07.963Z,98782.34
2022-11-24T22:01:36.573Z,98785.25
2022-11-24T22:04:04.733Z,98790.94
2022-11-24T22:06:33.434Z,98793.84
2022-11-24T22:09:01.621Z,98795.16
2022-11-24T22:11:29.565Z,98788.66
2022-11-24T22:13:57.436Z,98788.56
2022-11-24T22:16:25.848Z,98797.00
2022-11-24T22:18:53.907Z,98791.47
2022-11-24T22:21:33.397Z,98795.50
2022-11-24T22:24:02.425Z,98788.81
2022-11-24T22:26:30.614Z,98795.41
2022-11-24T22:28:58.657Z,98796.22
2022-11-24T22:31:30.189Z,98784.91
2022-11-24T22:34:00.025Z,98800.84
2022-11-24T22:36:29.825Z,98789.28
2022-11-24T22:39:03.068Z,98799.25
2022-11-24T22:41:35.412Z,98798.56
2022-11-24T22:44:04.645Z,98797.63
2022-11-24T22:46:32.572Z,98797.34
2022-11-24T22:49:01.857Z,98803.72
2022-11-24T22:51:32.536Z,98808.56
2022-11-24T22:54:02.596Z,98806.19
2022-11-24T22:56:33.855Z,98800.28
2022-11-24T22:59:02.528Z,98796.09
2022-11-24T23:01:32.276Z,98799.41
2022-11-24T23:04:00.356Z,98802.38
2022-11-24T23:06:31.422Z,98794.09
2022-11-24T23:09:00.868Z,98800.03
2022-11-24T23:11:39.963Z,98806.16
2022-11-24T23:14:13.160Z,98814.00
2022-11-24T23:16:42.497Z,98817.50
2022-11-24T23:19:10.586Z,98804.09
2022-11-24T23:24:31.341Z,98802.75
2022-11-24T23:27:00.089Z,98795.22
2022-11-24T23:29:28.014Z,98790.78
2022-11-24T23:31:56.486Z,98798.81
2022-11-24T23:34:24.353Z,98801.53
2022-11-24T23:36:52.433Z,98805.84
2022-11-24T23:39:20.324Z,98802.25
2022-11-24T23:41:48.222Z,98801.75
2022-11-24T23:44:16.047Z,98791.81
2022-11-24T23:46:44.118Z,98797.03
2022-11-24T23:49:12.221Z,98788.91
2022-11-24T23:51:42.047Z,98786.06
2022-11-24T23:54:10.034Z,98783.78
2022-11-24T23:56:38.563Z,98796.81
2022-11-24T23:59:06.448Z,98793.28
